• Join FlightAware (Why Join?)
  • Login
  • US Flag 
07:44AM EDT


 

Airport Tracker/Info


-or-


 

Live Flight TrackerFlight Track Log ✈ ASQ4406 ✈ 18-May-2013 ✈ KCLE - KMCI

Flight Track Log - Related Links

Times and Time Zones

All times are in EDT time to prevent confusion due to time zone crossing. See the ASQ4406 flight status page for this flight to view local times or setup timezone preferences in your user account.

Time Position Orientation Groundspeed Altitude Reporting Facility
EDT Latitude Longitude Course Direction KTS MPH feet Rate Location/Type
12:18PM 41.4194 -81.8375 353° North 171 197 1,700  Level Cleveland Center
12:19PM 41.4736 -81.8469 353° North 244 281 3,200 2,160 Climbing Cleveland Center
12:20PM 41.5506 -81.8567 355° North 281 323 5,900 1,980 Climbing Cleveland Center
12:21PM 41.5747 -81.9347 293° West 291 335 7,300 1,800 Climbing Cleveland Center
12:23PM 41.4725 -82.1017 231° Southwest 290 334 11,400 1,740 Climbing Cleveland Center
12:24PM 41.4269 -82.2225 243° Southwest 338 389 12,600 1,380 Climbing Cleveland Center
12:25PM 41.3875 -82.3517 248° West 374 430 14,200 1,800 Climbing Cleveland Center
12:26PM 41.3481 -82.4833 248° West 388 447 16,200 1,800 Climbing Cleveland Center
12:27PM 41.3058 -82.6231 248° West 388 447 17,900 1,740 Climbing Cleveland Center
12:28PM 41.2661 -82.7517 248° West 388 447 19,700 1,740 Climbing Cleveland Center
12:29PM 41.2261 -82.8772 247° West 383 441 21,400 1,500 Climbing Cleveland Center
12:30PM 41.1881 -83.0058 249° West 383 441 22,800 1,380 Climbing Cleveland Center
12:31PM 41.1475 -83.1394 248° West 383 441 24,200 1,440 Climbing Cleveland Center
12:32PM 41.1050 -83.2700 247° West 389 448 25,700 1,680 Climbing Cleveland Center
12:33PM 41.0683 -83.3981 249° West 383 441 27,600 1,680 Climbing Cleveland Center
12:34PM 41.0278 -83.5283 248° West 376 433 29,100 1,200 Climbing Cleveland Center
12:35PM 40.9889 -83.6586 248° West 387 445 30,000 1,260 Climbing Cleveland Center
12:37PM 40.8803 -83.9294 242° Southwest 382 440 33,300 1,260 Climbing Indianapolis Center
12:38PM 40.8278 -84.0528 241° Southwest 384 442 34,300 720 Climbing Indianapolis Center
12:39PM 40.7736 -84.1783 240° Southwest 390 449 34,800 720 Climbing Indianapolis Center
12:40PM 40.7389 -84.3464 255° West 404 465 35,800 840 Climbing Indianapolis Center
12:41PM 40.7319 -84.4000 260° West 406 467 36,000 120 Climbing Chicago Center
12:42PM 40.7103 -84.5492 259° West 411 473 36,000  Level Chicago Center
12:43PM 40.6869 -84.7067 259° West 430 495 36,000  Level Chicago Center
12:44PM 40.6628 -84.8703 259° West 447 514 36,000  Level Chicago Center
12:45PM 40.6347 -85.0575 259° West 458 527 36,000  Level Chicago Center
12:46PM 40.6097 -85.2225 259° West 461 531 36,000  Level Chicago Center
12:47PM 40.5847 -85.3864 259° West 460 529 36,000  Level Chicago Center
12:48PM 40.5589 -85.5503 258° West 461 531 36,000  Level Chicago Center
12:49PM 40.5333 -85.7158 259° West 463 533 36,000  Level Chicago Center
12:50PM 40.5081 -85.8792 259° West 461 531 36,000  Level Chicago Center
12:51PM 40.4831 -86.0403 259° West 456 525 36,000  Level Chicago Center
12:52PM 40.4522 -86.2333 258° West 455 524 36,000  Level Chicago Center
12:53PM 40.4264 -86.3939 258° West 453 521 36,000  Level Chicago Center
12:54PM 40.4108 -86.5572 263° West 456 525 36,000  Level Chicago Center
12:55PM 40.3986 -86.7228 265° West 460 529 36,000  Level Chicago Center
12:56PM 40.3864 -86.8900 265° West 463 533 36,000  Level Chicago Center
12:57PM 40.3703 -87.0908 264° West 466 536 36,000  Level Chicago Center
12:58PM 40.3567 -87.2586 264° West 465 535 36,000  Level Chicago Center
12:59PM 40.3419 -87.4250 263° West 463 533 36,000  Level Chicago Center
01:00PM 40.3292 -87.5978 265° West 457 526 36,000  Level Chicago Center
01:01PM 40.3144 -87.7642 263° West 459 528 36,000  Level Chicago Center
01:02PM 40.3008 -87.9300 264° West 460 529 36,000  Level Chicago Center
01:03PM 40.2861 -88.0969 263° West 462 532 36,000  Level Chicago Center
01:04PM 40.2728 -88.2617 264° West 459 528 36,000  Level Chicago Center
01:06PM 40.2542 -88.4617 263° West 461 531 36,000  Level Chicago Center
01:07PM 40.2397 -88.6222 263° West 463 533 36,000  Level Chicago Center
01:08PM 40.2239 -88.7894 263° West 462 532 36,000  Level Chicago Center
01:09PM 40.2072 -88.9567 263° West 463 533 36,000  Level Chicago Center
01:10PM 40.1917 -89.1228 263° West 461 531 36,000  Level Chicago Center
01:11PM 40.1739 -89.2908 262° West 465 535 36,000  Level Chicago Center
01:12PM 40.1575 -89.4572 263° West 462 532 36,000  Level Chicago Center
01:13PM 40.1408 -89.6236 263° West 460 529 36,000  Level Chicago Center
01:14PM 40.1211 -89.8208 263° West 457 526 36,000  Level Kansas City Center
01:15PM 40.1047 -89.9847 263° West 461 531 36,000  Level Chicago Center
01:16PM 40.0872 -90.1503 262° West 460 529 36,000  Level Chicago Center
01:17PM 40.0703 -90.3144 262° West 458 527 36,000  Level Chicago Center
01:18PM 40.0517 -90.4778 262° West 455 524 36,000  Level Chicago Center
01:19PM 40.0325 -90.6586 262° West 457 526 36,000  Level Chicago Center
01:20PM 40.0142 -90.8192 262° West 453 521 36,000  Level Chicago Center
01:21PM 39.9967 -90.9808 262° West 454 522 36,000  Level Chicago Center
01:22PM 39.9781 -91.1422 261° West 453 521 36,000  Level Chicago Center
01:23PM 39.9592 -91.3028 261° West 454 522 36,000  Level Chicago Center
01:24PM 39.9372 -91.4956 262° West 452 520 36,000  Level Chicago Center
01:25PM 39.9178 -91.6567 261° West 453 521 36,000  Level Chicago Center
01:26PM 39.8989 -91.8156 261° West 449 517 36,000  Level Chicago Center
01:27PM 39.8800 -91.9736 261° West 444 511 36,000 -300 Level Chicago Center
01:28PM 39.8558 -92.1650 261° West 445 512 35,400 -720 Descending Kansas City Center
01:29PM 39.8367 -92.3225 261° West 445 512 34,500 -1,020 Descending Kansas City Center
01:30PM 39.8161 -92.4825 261° West 446 513 33,400 -1,140 Descending Kansas City Center
01:31PM 39.7917 -92.6717 261° West 443 510 32,200 -1,620 Descending Kansas City Center
01:32PM 39.7717 -92.8281 261° West 442 509 30,200 -2,460 Descending Kansas City Center
01:33PM 39.7506 -92.9864 260° West 444 511 27,200 -2,880 Descending Kansas City Center
01:35PM 39.7292 -93.1475 260° West 451 519 24,300 -2,820 Descending Kansas City Center
01:36PM 39.7094 -93.2983 260° West 433 498 21,400 -2,880 Descending Kansas City Center
01:37PM 39.6897 -93.4458 260° West 424 488 18,400 -3,240 Descending Kansas City Center
01:38PM 39.6678 -93.6078 260° West 390 449 14,800 -2,820 Descending Kansas City Center
01:39PM 39.6486 -93.7453 260° West 372 428 12,600 -1,500 Descending Kansas City Center
01:40PM 39.6294 -93.8681 259° West 365 420 11,700 -960 Descending Kansas City Center
01:41PM 39.5803 -93.9761 239° Southwest 361 415 10,700 -840 Descending Kansas City Center
01:42PM 39.5219 -94.0950 238° Southwest 350 403 10,000 -660 Descending Kansas City Center
01:43PM 39.5094 -94.1906 260° West 277 319 9,400 -1,020 Descending Kansas City Center
01:44PM 39.5011 -94.2967 264° West 266 306 8,000 -1,200 Descending Kansas City Center
01:45PM 39.5025 -94.3928 271° West 277 319 7,000 -1,140 Descending Kansas City Center
01:46PM 39.5047 -94.5000 272° West 267 307 5,700 -1,380 Descending Kansas City Center
01:47PM 39.5075 -94.5917 272° West 266 306 4,200 -840 Descending Kansas City Center
01:48PM 39.5008 -94.6844 265° West 235 270 4,000 -300 Descending Kansas City Center
01:49PM 39.4556 -94.6806 176° South 176 203 3,700 -720 Descending Kansas City Center
01:50PM 39.4008 -94.6978 194° South 181 208 2,600 -900 Descending Kansas City Center
01:51PM 39.3628 -94.7089 193° South 149 171 1,900 -720 Descending Kansas City Center
01:52PM 39.3281 -94.7197 194° South 135 155 1,200 -720 Descending Kansas City Center
01:54PM 39.2976 -94.7139 189° South  Level Estimated